Time;durP1;ratioP1;P1;durP2;ratioP2;P2;SDS_P1;SDS_P2;PMS_P1;PMS_P2;Temp;Humidity;BMP_temperature;BMP_pressure;BME280_temperature;BME280_humidity;BME280_pressure;Samples;Min_cycle;Max_cycle;Signal;HPM_P1;HPM_P2
2023/01/27 00:00:40;;;;;;;20.30;11.60;;;4.10;99.90;;;;;;4991466;28;20056;-67
2023/01/27 00:03:10;;;;;;;13.40;10.40;;;4.10;99.90;;;;;;4990742;28;20104;-67
2023/01/27 00:05:35;;;;;;;17.05;11.32;;;4.10;99.90;;;;;;5007825;28;20046;-67
2023/01/27 00:08:01;;;;;;;16.13;11.13;;;4.00;99.90;;;;;;5009296;28;20115;-67
2023/01/27 00:10:27;;;;;;;13.77;10.68;;;4.10;99.90;;;;;;4972365;28;20034;-67
2023/01/27 00:15:36;;;;;;;16.37;10.93;;;4.00;99.90;;;;;;4991775;28;20056;-67
2023/01/27 00:18:02;;;;;;;15.68;11.43;;;4.20;99.90;;;;;;5009579;28;20041;-67
2023/01/27 00:26:05;;;;;;;14.95;10.52;;;4.10;99.90;;;;;;4990656;28;20048;-67
2023/01/27 00:28:34;;;;;;;13.25;10.38;;;4.10;99.90;;;;;;5007403;28;20054;-67
2023/01/27 00:31:00;;;;;;;13.70;10.30;;;4.10;99.90;;;;;;4989744;28;20123;-67
2023/01/27 00:33:27;;;;;;;15.13;11.07;;;4.10;99.90;;;;;;5006925;28;20535;-67
2023/01/27 00:36:01;;;;;;;13.20;10.80;;;4.10;99.90;;;;;;4985549;28;20093;-68
2023/01/27 00:38:28;;;;;;;13.07;10.38;;;4.10;99.90;;;;;;5009299;28;20052;-67
2023/01/27 00:43:38;;;;;;;12.27;10.20;;;4.10;99.90;;;;;;5009520;28;20402;-67
2023/01/27 00:46:04;;;;;;;12.20;10.90;;;4.10;99.90;;;;;;4991206;28;20042;-67
2023/01/27 00:48:30;;;;;;;12.70;11.40;;;4.10;99.90;;;;;;5008163;28;20022;-67
2023/01/27 00:50:56;;;;;;;12.25;10.48;;;4.10;99.90;;;;;;5007276;28;20045;-67
2023/01/27 00:53:22;;;;;;;13.70;10.38;;;4.10;99.90;;;;;;5007616;28;20045;-67
2023/01/27 00:55:48;;;;;;;11.68;10.48;;;4.20;99.90;;;;;;5008223;28;20097;-67
2023/01/27 00:58:14;;;;;;;12.63;9.63;;;4.10;99.90;;;;;;5009575;28;20133;-67
2023/01/27 01:00:40;;;;;;;10.95;9.05;;;4.10;99.90;;;;;;4991049;28;20046;-67
2023/01/27 01:03:06;;;;;;;7.85;6.40;;;4.10;99.90;;;;;;5009260;28;20041;-67
2023/01/27 01:05:31;;;;;;;11.50;9.27;;;4.10;99.90;;;;;;4989618;28;20053;-67
2023/01/27 01:07:57;;;;;;;11.73;8.13;;;4.10;99.90;;;;;;5006190;28;20034;-67
2023/01/27 01:10:23;;;;;;;9.80;7.68;;;4.10;99.90;;;;;;4992659;28;20037;-69
2023/01/27 01:12:49;;;;;;;9.20;7.22;;;4.10;99.90;;;;;;4991580;28;20149;-67
2023/01/27 01:15:14;;;;;;;8.70;7.57;;;4.10;99.90;;;;;;4994345;28;20034;-67
2023/01/27 01:17:40;;;;;;;9.73;8.18;;;4.10;99.90;;;;;;5010311;28;20409;-67
2023/01/27 01:20:06;;;;;;;10.10;7.75;;;4.10;99.90;;;;;;4993401;28;20060;-67
2023/01/27 01:22:32;;;;;;;10.55;7.18;;;4.10;99.90;;;;;;4993860;28;20172;-67
2023/01/27 01:24:58;;;;;;;9.10;6.38;;;4.10;99.90;;;;;;5012428;28;20117;-67
2023/01/27 01:27:24;;;;;;;8.77;6.47;;;4.10;99.90;;;;;;4988060;28;20055;-68
2023/01/27 01:29:49;;;;;;;9.25;6.88;;;4.10;99.90;;;;;;4992443;28;20046;-67
2023/01/27 01:32:15;;;;;;;7.20;5.47;;;4.20;99.90;;;;;;4993130;28;20034;-67
2023/01/27 01:34:42;;;;;;;7.80;5.43;;;4.10;99.90;;;;;;4991458;28;20042;-67
2023/01/27 01:37:07;;;;;;;6.70;5.68;;;4.10;99.90;;;;;;4992946;28;20425;-67
2023/01/27 01:39:33;;;;;;;8.02;5.93;;;4.10;99.90;;;;;;4974255;28;20050;-67
2023/01/27 01:41:59;;;;;;;10.05;5.57;;;4.20;99.90;;;;;;4989761;28;20030;-67
2023/01/27 01:44:30;;;;;;;6.05;5.35;;;4.20;99.90;;;;;;4992988;28;20444;-67
2023/01/27 01:46:56;;;;;;;7.68;5.35;;;4.20;99.90;;;;;;4992269;28;20585;-67
2023/01/27 01:49:35;;;;;;;10.00;6.30;;;4.20;99.90;;;;;;4991062;28;20045;-67
2023/01/27 01:52:06;;;;;;;7.13;5.72;;;4.10;99.90;;;;;;4992193;28;20097;-67
2023/01/27 01:54:46;;;;;;;6.93;6.13;;;4.20;99.90;;;;;;4990717;28;20102;-67
2023/01/27 01:57:20;;;;;;;7.47;5.97;;;4.20;99.90;;;;;;4992822;28;20050;-67
2023/01/27 01:59:51;;;;;;;7.45;6.65;;;4.20;99.90;;;;;;4973923;28;20050;-67
2023/01/27 02:02:20;;;;;;;8.65;6.45;;;4.20;99.90;;;;;;4991690;28;20053;-65
2023/01/27 02:05:00;;;;;;;8.73;6.40;;;4.20;99.90;;;;;;4990279;28;20770;-66
2023/01/27 02:07:56;;;;;;;8.95;6.78;;;4.20;99.90;;;;;;4975261;28;20049;-65
2023/01/27 02:10:23;;;;;;;9.20;7.85;;;4.20;99.90;;;;;;4972228;28;20050;-65
2023/01/27 02:12:48;;;;;;;9.85;6.45;;;4.20;99.90;;;;;;4989037;28;20396;-65
2023/01/27 02:15:14;;;;;;;8.52;7.18;;;4.20;99.90;;;;;;4975885;28;20350;-64
2023/01/27 02:17:40;;;;;;;10.60;7.32;;;4.20;99.90;;;;;;4991573;28;20042;-65
2023/01/27 02:20:38;;;;;;;9.32;7.68;;;4.20;99.90;;;;;;4989886;28;20042;-65
2023/01/27 02:23:17;;;;;;;10.07;7.68;;;4.10;99.90;;;;;;4990613;28;20518;-65
2023/01/27 02:26:04;;;;;;;9.45;8.18;;;4.10;99.90;;;;;;4973501;28;20050;-65
2023/01/27 02:28:30;;;;;;;12.07;8.02;;;4.20;99.90;;;;;;5008743;28;20057;-65
2023/01/27 02:30:56;;;;;;;9.20;7.57;;;4.20;99.90;;;;;;4984896;28;20378;-65
2023/01/27 02:33:22;;;;;;;7.78;6.32;;;4.10;99.90;;;;;;5010405;28;20414;-65
2023/01/27 02:35:57;;;;;;;8.07;6.22;;;4.10;99.90;;;;;;5010902;28;20084;-65
2023/01/27 02:38:25;;;;;;;8.43;5.30;;;4.10;99.90;;;;;;5010407;28;20121;-65
2023/01/27 02:40:56;;;;;;;6.28;4.82;;;4.20;99.90;;;;;;4991102;28;20104;-64
2023/01/27 02:43:22;;;;;;;6.88;5.05;;;4.20;99.90;;;;;;5006561;28;20413;-64
2023/01/27 02:45:48;;;;;;;6.63;4.35;;;4.20;99.90;;;;;;5010196;28;20040;-65
2023/01/27 02:48:14;;;;;;;5.40;4.07;;;4.20;99.90;;;;;;5009271;28;20037;-64
2023/01/27 02:50:40;;;;;;;6.38;4.10;;;4.20;99.90;;;;;;5010125;28;20122;-64
2023/01/27 02:53:06;;;;;;;4.80;3.33;;;4.20;99.90;;;;;;5008011;28;20476;-65
2023/01/27 02:55:32;;;;;;;5.63;3.53;;;4.20;99.90;;;;;;5009858;28;20221;-65
2023/01/27 02:57:58;;;;;;;3.47;3.00;;;4.30;99.90;;;;;;5007775;28;20037;-66
2023/01/27 03:00:23;;;;;;;4.10;2.60;;;4.20;99.90;;;;;;4992714;28;20108;-66
2023/01/27 03:02:49;;;;;;;5.05;2.80;;;4.20;99.90;;;;;;5010631;28;20506;-65
2023/01/27 03:05:15;;;;;;;4.60;2.35;;;4.20;99.90;;;;;;5008358;28;20405;-65
2023/01/27 03:07:41;;;;;;;2.88;2.08;;;4.20;99.90;;;;;;4988602;28;20046;-65
2023/01/27 03:10:08;;;;;;;3.90;1.90;;;4.30;99.90;;;;;;4990889;28;20077;-65
2023/01/27 03:12:34;;;;;;;3.97;2.00;;;4.30;99.90;;;;;;4984949;28;20448;-64
2023/01/27 03:20:28;;;;;;;2.47;1.17;;;4.30;99.90;;;;;;4991234;28;20077;-64
2023/01/27 03:22:54;;;;;;;3.17;1.40;;;4.30;99.90;;;;;;5009139;28;20034;-66
2023/01/27 03:25:20;;;;;;;4.53;1.63;;;4.30;99.90;;;;;;5008911;28;20050;-64
2023/01/27 03:27:46;;;;;;;3.53;1.40;;;4.30;99.90;;;;;;4991157;28;20135;-64
2023/01/27 03:30:12;;;;;;;2.22;1.40;;;4.40;99.90;;;;;;5009714;28;20049;-64
2023/01/27 03:32:45;;;;;;;5.18;1.50;;;4.40;99.90;;;;;;5009856;28;20049;-65
2023/01/27 03:35:15;;;;;;;1.65;0.93;;;4.40;99.90;;;;;;4988903;28;20053;-64
2023/01/27 03:48:39;;;;;;;2.30;1.23;;;4.30;99.90;;;;;;5004964;28;20056;-65
2023/01/27 03:51:06;;;;;;;3.03;1.23;;;4.30;99.90;;;;;;4990838;28;20045;-65
2023/01/27 03:53:33;;;;;;;3.75;1.20;;;4.40;99.90;;;;;;4979960;28;20080;-64
2023/01/27 03:55:59;;;;;;;3.00;1.15;;;4.30;99.90;;;;;;5007712;28;20121;-64
2023/01/27 03:58:28;;;;;;;3.33;1.65;;;4.40;99.90;;;;;;5009805;28;20443;-64
2023/01/27 04:01:06;;;;;;;1.58;1.20;;;4.30;99.90;;;;;;5008947;28;20060;-65
2023/01/27 04:09:07;;;;;;;3.65;1.20;;;4.30;99.90;;;;;;4990327;28;20135;-65
2023/01/27 04:14:17;;;;;;;2.77;1.30;;;4.30;99.90;;;;;;5009455;28;20048;-65
2023/01/27 04:16:44;;;;;;;1.73;0.90;;;4.30;99.90;;;;;;4986737;28;20049;-65
2023/01/27 04:19:10;;;;;;;2.72;1.30;;;4.30;99.90;;;;;;4983835;28;20128;-64
2023/01/27 04:21:37;;;;;;;5.45;1.23;;;4.30;99.90;;;;;;4988974;28;20115;-64
2023/01/27 04:24:03;;;;;;;5.28;1.73;;;4.30;99.90;;;;;;4991108;28;20046;-65
2023/01/27 04:26:33;;;;;;;6.60;1.38;;;4.30;99.90;;;;;;5005941;28;20072;-64
2023/01/27 04:29:00;;;;;;;2.42;1.33;;;4.30;99.90;;;;;;5000548;28;20158;-65
2023/01/27 04:31:26;;;;;;;2.05;1.30;;;4.30;99.90;;;;;;5007061;28;20132;-64
2023/01/27 04:33:52;;;;;;;3.42;1.50;;;4.30;99.90;;;;;;4984687;28;20042;-64
2023/01/27 04:36:17;;;;;;;4.47;1.40;;;4.30;99.90;;;;;;5007096;28;20042;-65
2023/01/27 04:38:44;;;;;;;1.52;1.30;;;4.30;99.90;;;;;;5007834;28;20072;-64
2023/01/27 04:41:10;;;;;;;2.80;1.40;;;4.30;99.90;;;;;;5008074;28;20096;-65
2023/01/27 04:43:36;;;;;;;1.73;1.10;;;4.20;99.90;;;;;;5006794;28;20049;-64
2023/01/27 04:46:01;;;;;;;2.72;1.50;;;4.10;99.90;;;;;;5005910;28;20038;-65
2023/01/27 04:48:27;;;;;;;1.77;1.35;;;4.10;99.90;;;;;;5010021;28;20049;-64
2023/01/27 04:50:53;;;;;;;4.22;2.08;;;4.20;99.90;;;;;;5012580;28;20034;-65
2023/01/27 04:53:19;;;;;;;5.15;1.50;;;4.20;99.90;;;;;;5011792;28;20041;-65
2023/01/27 04:55:48;;;;;;;1.27;1.17;;;4.20;99.90;;;;;;4978710;28;20525;-65
2023/01/27 04:58:15;;;;;;;2.10;1.20;;;4.20;99.90;;;;;;5012935;28;20033;-64
2023/01/27 05:00:41;;;;;;;3.08;1.50;;;4.20;99.90;;;;;;5012809;28;20085;-65
2023/01/27 05:03:08;;;;;;;2.00;1.20;;;4.20;99.90;;;;;;4989802;28;20066;-65
2023/01/27 05:05:35;;;;;;;3.17;1.40;;;4.10;99.90;;;;;;5011456;28;20046;-64
2023/01/27 05:08:08;;;;;;;3.92;1.73;;;4.10;99.90;;;;;;5011848;28;20038;-64
2023/01/27 05:10:35;;;;;;;1.77;1.40;;;4.10;99.90;;;;;;5012436;28;20558;-64
2023/01/27 05:13:01;;;;;;;1.83;1.20;;;4.10;99.90;;;;;;5011852;28;20048;-65
2023/01/27 05:15:27;;;;;;;2.88;1.40;;;4.10;99.90;;;;;;5012511;28;20504;-63
2023/01/27 05:17:54;;;;;;;5.85;1.92;;;4.10;99.90;;;;;;4994647;28;20053;-63
2023/01/27 05:20:20;;;;;;;2.83;1.20;;;4.10;99.90;;;;;;5011759;28;20168;-63
2023/01/27 05:22:45;;;;;;;2.80;1.27;;;4.10;99.90;;;;;;5012074;28;20564;-63
2023/01/27 05:25:11;;;;;;;3.20;1.40;;;4.10;99.90;;;;;;5012494;28;20046;-66
2023/01/27 05:27:37;;;;;;;2.75;1.50;;;4.10;99.90;;;;;;5012317;28;20054;-65
2023/01/27 05:30:03;;;;;;;4.88;1.95;;;4.10;99.90;;;;;;5011578;28;20042;-63
2023/01/27 05:32:29;;;;;;;4.35;1.80;;;4.10;99.90;;;;;;5011963;28;20061;-65
2023/01/27 05:34:54;;;;;;;5.80;1.55;;;4.10;99.90;;;;;;5011742;28;20085;-65
2023/01/27 05:37:20;;;;;;;3.95;1.50;;;4.10;99.90;;;;;;4993511;28;20080;-64
2023/01/27 05:39:45;;;;;;;2.65;1.55;;;4.10;99.90;;;;;;5011557;28;20038;-64
2023/01/27 05:42:11;;;;;;;5.60;1.80;;;4.10;99.90;;;;;;5012449;28;20069;-64
2023/01/27 05:44:37;;;;;;;3.10;1.77;;;4.10;99.90;;;;;;5011146;28;20052;-64
2023/01/27 05:47:03;;;;;;;3.00;1.50;;;4.10;99.90;;;;;;5011466;28;20067;-64
2023/01/27 05:49:28;;;;;;;4.88;2.00;;;4.00;99.90;;;;;;5009707;28;20048;-64
2023/01/27 05:51:54;;;;;;;3.72;1.95;;;4.00;99.90;;;;;;5011938;28;20410;-64
2023/01/27 05:54:20;;;;;;;4.43;1.50;;;4.00;99.90;;;;;;5010529;28;20077;-64
2023/01/27 05:56:45;;;;;;;3.13;1.63;;;4.00;99.90;;;;;;5012033;28;20409;-64
2023/01/27 05:59:11;;;;;;;2.20;1.65;;;4.00;99.90;;;;;;5010603;28;20046;-64
2023/01/27 06:01:37;;;;;;;4.47;1.50;;;4.00;99.90;;;;;;5011194;28;20042;-65
2023/01/27 06:04:03;;;;;;;4.63;1.50;;;4.00;99.90;;;;;;5011161;28;20058;-65
2023/01/27 06:06:31;;;;;;;3.50;1.60;;;4.00;99.90;;;;;;5008774;28;20040;-65
2023/01/27 06:08:57;;;;;;;7.88;1.83;;;4.00;99.90;;;;;;4993006;28;20069;-65
2023/01/27 06:11:23;;;;;;;3.05;1.58;;;4.00;99.90;;;;;;5011182;28;20044;-65
2023/01/27 06:13:51;;;;;;;3.33;1.73;;;4.00;99.90;;;;;;5010723;28;20072;-64
2023/01/27 06:16:18;;;;;;;2.20;1.73;;;4.00;99.90;;;;;;5011461;28;20449;-64
2023/01/27 06:18:45;;;;;;;3.28;1.63;;;3.90;99.90;;;;;;5011246;28;20096;-64
2023/01/27 06:21:12;;;;;;;4.30;1.45;;;4.00;99.90;;;;;;5010584;28;20117;-64
2023/01/27 06:23:39;;;;;;;5.50;1.83;;;3.90;99.90;;;;;;5011043;28;20100;-64
2023/01/27 06:26:13;;;;;;;3.35;1.35;;;3.90;99.90;;;;;;4992454;28;20038;-64
2023/01/27 06:28:39;;;;;;;7.60;2.00;;;3.90;99.90;;;;;;4976694;28;20055;-64
2023/01/27 06:31:13;;;;;;;4.47;1.92;;;3.90;99.90;;;;;;5010895;28;20041;-63
2023/01/27 06:33:39;;;;;;;4.68;1.58;;;3.90;99.90;;;;;;4992396;28;20692;-63
2023/01/27 06:36:11;;;;;;;4.20;1.88;;;3.90;99.90;;;;;;5010246;28;20030;-63
2023/01/27 06:38:36;;;;;;;3.88;1.88;;;3.90;99.90;;;;;;5009081;28;20128;-64
2023/01/27 06:41:03;;;;;;;5.70;1.88;;;3.90;99.90;;;;;;5011676;28;20573;-65
2023/01/27 06:43:28;;;;;;;5.63;2.13;;;3.90;99.90;;;;;;5007807;28;20034;-64
2023/01/27 06:45:56;;;;;;;4.72;2.13;;;3.90;99.90;;;;;;5006686;28;20042;-64
2023/01/27 06:48:23;;;;;;;4.63;2.13;;;3.90;99.90;;;;;;4989591;28;20461;-64
2023/01/27 06:50:49;;;;;;;9.70;2.83;;;3.90;99.90;;;;;;4988322;28;20119;-64
2023/01/27 06:53:14;;;;;;;6.25;2.38;;;3.80;99.90;;;;;;4987485;28;20397;-63
2023/01/27 06:55:40;;;;;;;5.78;2.60;;;3.90;99.90;;;;;;5005549;28;20038;-64
2023/01/27 06:58:07;;;;;;;3.38;2.20;;;3.80;99.90;;;;;;5005111;28;20042;-63
2023/01/27 07:00:35;;;;;;;5.93;2.95;;;3.90;99.90;;;;;;5005289;28;20532;-64
2023/01/27 07:03:01;;;;;;;4.22;2.83;;;3.90;99.90;;;;;;4986829;28;20402;-64
2023/01/27 07:05:27;;;;;;;5.72;2.67;;;3.80;99.90;;;;;;5006812;28;20489;-63
2023/01/27 07:07:53;;;;;;;4.05;2.85;;;3.90;99.90;;;;;;5006006;28;20069;-63
2023/01/27 07:10:19;;;;;;;4.25;2.70;;;3.80;99.90;;;;;;5007875;28;20034;-63
2023/01/27 07:12:45;;;;;;;3.90;2.67;;;3.80;99.90;;;;;;5006686;28;20425;-63
2023/01/27 07:15:11;;;;;;;3.72;2.88;;;3.80;99.90;;;;;;5009143;28;20056;-63
2023/01/27 07:17:37;;;;;;;7.55;3.10;;;3.80;99.90;;;;;;5009727;28;20080;-64
2023/01/27 07:20:04;;;;;;;8.73;2.92;;;3.80;99.90;;;;;;4992085;28;20044;-63
2023/01/27 07:22:30;;;;;;;7.55;3.65;;;3.70;99.90;;;;;;5008386;28;20053;-64
2023/01/27 07:24:56;;;;;;;5.68;3.40;;;3.70;99.90;;;;;;5009658;28;20046;-64
2023/01/27 07:27:22;;;;;;;5.65;3.47;;;3.70;99.90;;;;;;5009170;28;20542;-63
2023/01/27 07:29:48;;;;;;;12.30;7.68;;;3.70;99.90;;;;;;5006710;28;20062;-64
2023/01/27 07:32:14;;;;;;;5.15;4.47;;;3.70;99.90;;;;;;4991778;28;20041;-64
2023/01/27 07:34:40;;;;;;;7.30;3.20;;;3.70;99.90;;;;;;5008859;28;20089;-63
2023/01/27 07:37:06;;;;;;;6.97;3.03;;;3.70;99.90;;;;;;5009248;28;20084;-64
2023/01/27 07:39:32;;;;;;;3.97;2.85;;;3.70;99.90;;;;;;5008729;28;20049;-65
2023/01/27 07:42:00;;;;;;;4.13;2.33;;;3.70;99.90;;;;;;5009668;28;20077;-64
2023/01/27 07:44:27;;;;;;;4.45;2.20;;;3.70;99.90;;;;;;5007636;28;20042;-64
2023/01/27 07:46:53;;;;;;;4.82;2.10;;;3.70;99.90;;;;;;5009783;28;20054;-64
2023/01/27 07:49:18;;;;;;;7.47;2.25;;;3.60;99.90;;;;;;5008487;28;20187;-63
2023/01/27 07:51:44;;;;;;;7.43;2.20;;;3.70;99.90;;;;;;5009019;28;20053;-65
2023/01/27 07:54:11;;;;;;;6.22;2.78;;;3.70;99.90;;;;;;4990177;28;20041;-64
2023/01/27 07:56:37;;;;;;;4.13;1.88;;;3.80;99.90;;;;;;5008684;28;20046;-64
2023/01/27 07:59:03;;;;;;;3.65;1.95;;;3.70;99.90;;;;;;5006945;28;20038;-64
2023/01/27 08:01:29;;;;;;;3.13;2.30;;;3.80;99.90;;;;;;5009271;28;20026;-64
2023/01/27 08:03:58;;;;;;;4.40;2.33;;;3.80;99.90;;;;;;5008445;28;20044;-65
2023/01/27 08:06:23;;;;;;;6.30;2.53;;;3.80;99.90;;;;;;5008710;28;20034;-64
2023/01/27 08:08:49;;;;;;;4.50;1.63;;;3.80;99.90;;;;;;5008402;28;20065;-64
2023/01/27 08:11:15;;;;;;;4.30;2.30;;;3.80;99.90;;;;;;5009603;28;20048;-64
2023/01/27 08:13:41;;;;;;;6.75;2.22;;;3.90;99.90;;;;;;5009562;28;20034;-64
2023/01/27 08:16:12;;;;;;;5.10;2.50;;;3.80;99.90;;;;;;4991794;28;20069;-64
2023/01/27 08:18:38;;;;;;;6.07;2.10;;;3.90;99.90;;;;;;5009001;28;20054;-64
2023/01/27 08:21:06;;;;;;;3.55;1.77;;;3.90;99.90;;;;;;5008906;28;20040;-65
2023/01/27 08:23:32;;;;;;;5.35;1.63;;;3.90;99.90;;;;;;5008288;28;20041;-64
2023/01/27 08:26:00;;;;;;;5.25;1.83;;;3.90;99.90;;;;;;5009213;28;20046;-64
2023/01/27 08:28:28;;;;;;;4.32;1.60;;;3.90;99.90;;;;;;5008634;28;20287;-64
2023/01/27 08:30:54;;;;;;;5.25;2.17;;;3.90;99.90;;;;;;5009305;28;20041;-64
2023/01/27 08:33:23;;;;;;;2.97;1.80;;;3.90;99.90;;;;;;5008586;28;20042;-64
2023/01/27 08:35:49;;;;;;;5.55;1.80;;;4.00;99.90;;;;;;5008123;28;20145;-65
2023/01/27 08:38:17;;;;;;;5.10;1.95;;;3.90;99.90;;;;;;5008341;28;20425;-64
2023/01/27 08:40:44;;;;;;;3.65;1.48;;;4.00;99.90;;;;;;5008352;28;20250;-64
2023/01/27 08:43:15;;;;;;;5.55;1.88;;;4.00;99.90;;;;;;5009121;28;20390;-64
2023/01/27 08:45:45;;;;;;;7.07;1.95;;;4.00;99.90;;;;;;5008682;28;20385;-64
2023/01/27 08:48:11;;;;;;;5.57;1.80;;;4.00;99.90;;;;;;5006119;28;20065;-64
2023/01/27 08:50:37;;;;;;;3.35;1.67;;;4.00;99.90;;;;;;5007804;28;20050;-64
2023/01/27 08:53:03;;;;;;;6.55;1.98;;;4.00;99.90;;;;;;5007418;28;20194;-64
2023/01/27 08:55:31;;;;;;;4.40;1.67;;;4.10;99.90;;;;;;5008296;28;20037;-64
2023/01/27 08:57:57;;;;;;;5.40;1.85;;;4.00;99.90;;;;;;5008650;28;20099;-64
2023/01/27 09:00:23;;;;;;;3.83;1.95;;;4.00;99.90;;;;;;4989145;28;20049;-64
2023/01/27 09:02:51;;;;;;;4.60;2.42;;;4.10;99.90;;;;;;4991080;28;20125;-64
2023/01/27 09:05:18;;;;;;;4.85;2.00;;;4.10;99.90;;;;;;5007968;28;20034;-64
2023/01/27 09:07:45;;;;;;;9.07;2.50;;;4.10;99.90;;;;;;4989718;28;20471;-63
2023/01/27 09:10:15;;;;;;;4.95;2.53;;;4.10;99.90;;;;;;4990787;28;20104;-64
2023/01/27 09:12:42;;;;;;;4.97;2.45;;;4.20;99.90;;;;;;5005568;28;20486;-65
2023/01/27 09:15:08;;;;;;;3.72;2.50;;;4.20;99.90;;;;;;5009009;28;20030;-64
2023/01/27 09:17:34;;;;;;;5.07;2.80;;;4.20;99.90;;;;;;5009235;28;20049;-64
2023/01/27 09:19:59;;;;;;;4.13;3.00;;;4.20;99.90;;;;;;5007860;28;20041;-64
2023/01/27 09:22:25;;;;;;;5.95;3.50;;;4.30;99.90;;;;;;5008210;28;20864;-64
2023/01/27 09:24:51;;;;;;;6.38;3.63;;;4.30;99.90;;;;;;5007669;28;20042;-64
2023/01/27 09:27:16;;;;;;;4.50;3.20;;;4.30;99.90;;;;;;5008225;28;20061;-64
2023/01/27 09:29:42;;;;;;;7.07;3.67;;;4.30;99.90;;;;;;5008598;28;20046;-64
2023/01/27 09:32:11;;;;;;;7.38;3.80;;;4.30;99.90;;;;;;4990730;28;20141;-63
2023/01/27 09:34:37;;;;;;;8.18;3.30;;;4.40;99.90;;;;;;5006752;28;20041;-64
2023/01/27 09:37:11;;;;;;;7.05;3.97;;;4.40;99.90;;;;;;5011913;28;20046;-64
2023/01/27 09:39:47;;;;;;;4.90;3.53;;;4.50;99.90;;;;;;5011636;28;20050;-64
2023/01/27 09:42:44;;;;;;;9.30;3.80;;;4.50;99.90;;;;;;5012092;28;20637;-64
2023/01/27 09:45:30;;;;;;;5.10;3.30;;;4.60;99.90;;;;;;5011713;28;20046;-64
2023/01/27 09:48:06;;;;;;;8.05;3.63;;;4.70;99.90;;;;;;5010318;28;20057;-63
2023/01/27 09:50:44;;;;;;;5.90;3.63;;;4.70;99.90;;;;;;4993564;28;20038;-64
2023/01/27 09:53:19;;;;;;;6.15;3.50;;;4.70;99.90;;;;;;5010428;28;20096;-64
2023/01/27 09:56:00;;;;;;;;;;;4.70;99.90;;;;;;5010164;28;20089;-64
2023/01/27 09:59:16;;;;;;;4.45;3.05;;;4.70;99.90;;;;;;5012007;28;19924;-64
2023/01/27 10:02:09;;;;;;;6.35;3.92;;;4.70;99.90;;;;;;4947774;28;20463;-64
2023/01/27 10:04:55;;;;;;;4.28;2.55;;;4.70;99.90;;;;;;5008173;28;20185;-64
2023/01/27 10:07:47;;;;;;;6.57;3.03;;;4.80;99.90;;;;;;5011677;28;20498;-64
2023/01/27 10:10:12;;;;;;;6.05;2.95;;;4.80;99.90;;;;;;5012133;28;20413;-64
2023/01/27 10:12:41;;;;;;;5.05;2.92;;;4.80;99.90;;;;;;5012038;28;20048;-63
2023/01/27 10:15:17;;;;;;;3.00;2.42;;;4.90;99.90;;;;;;5011630;28;20081;-63
2023/01/27 10:18:13;;;;;;;3.00;2.50;;;4.90;99.90;;;;;;5009092;28;20046;-63
2023/01/27 10:21:07;;;;;;;6.07;2.70;;;4.80;99.90;;;;;;5005706;28;20045;-64
2023/01/27 10:23:58;;;;;;;3.73;2.70;;;4.80;99.90;;;;;;5008575;28;20084;-64
2023/01/27 10:26:50;;;;;;;4.53;2.53;;;4.70;99.90;;;;;;5011898;28;20046;-64
2023/01/27 10:29:24;;;;;;;4.13;2.65;;;4.80;99.90;;;;;;5010125;28;20070;-64
2023/01/27 10:31:55;;;;;;;4.80;2.53;;;4.80;99.90;;;;;;5011533;28;20030;-65
2023/01/27 10:34:31;;;;;;;4.32;2.40;;;4.80;99.90;;;;;;5010449;28;20895;-64
2023/01/27 10:37:27;;;;;;;5.05;1.73;;;4.70;99.90;;;;;;5009574;28;20406;-63
2023/01/27 10:39:53;;;;;;;3.25;2.03;;;4.70;99.90;;;;;;5009672;28;20038;-64
2023/01/27 10:42:24;;;;;;;3.83;2.10;;;4.70;99.90;;;;;;5008224;28;20049;-64
2023/01/27 10:45:14;;;;;;;4.30;2.10;;;4.60;99.90;;;;;;5010078;28;20060;-64
2023/01/27 10:48:06;;;;;;;3.35;1.90;;;4.70;99.90;;;;;;5010913;28;20053;-64
2023/01/27 10:50:42;;;;;;;3.65;1.75;;;4.60;99.90;;;;;;5009808;28;20104;-64
2023/01/27 10:53:16;;;;;;;4.40;1.30;;;4.50;99.90;;;;;;4985401;28;20041;-63
2023/01/27 10:56:03;;;;;;;2.17;1.00;;;4.50;99.90;;;;;;5011044;28;20044;-63
2023/01/27 10:59:01;;;;;;;1.13;1.02;;;4.50;99.90;;;;;;5010617;28;20034;-64
2023/01/27 11:01:39;;;;;;;1.55;1.05;;;4.50;99.90;;;;;;4989784;28;20058;-64
2023/01/27 11:04:13;;;;;;;2.38;1.27;;;4.40;99.90;;;;;;5009541;28;20073;-65
2023/01/27 11:06:42;;;;;;;3.80;1.23;;;4.40;99.90;;;;;;5010567;28;20107;-63
2023/01/27 11:09:13;;;;;;;2.03;1.30;;;4.40;99.90;;;;;;5008392;28;20571;-63
2023/01/27 11:11:46;;;;;;;1.55;1.10;;;4.40;99.90;;;;;;5008136;28;20073;-63
2023/01/27 11:14:36;;;;;;;3.17;1.80;;;4.40;99.90;;;;;;5010190;28;20030;-64
2023/01/27 11:17:19;;;;;;;2.72;1.60;;;4.40;99.90;;;;;;5010013;28;20064;-64
2023/01/27 11:20:03;;;;;;;2.30;1.58;;;4.40;99.90;;;;;;5009687;28;20046;-64
2023/01/27 11:22:55;;;;;;;4.28;1.95;;;4.40;99.90;;;;;;5009928;28;20042;-65
2023/01/27 11:25:23;;;;;;;1.83;1.33;;;4.40;99.90;;;;;;5005948;28;20043;-64
2023/01/27 11:28:26;;;;;;;3.10;1.73;;;4.40;99.90;;;;;;5010145;28;20050;-63
2023/01/27 11:31:05;;;;;;;3.90;1.83;;;4.40;99.90;;;;;;4992009;28;20092;-64
2023/01/27 11:33:43;;;;;;;2.67;1.58;;;4.40;99.90;;;;;;4991749;28;20045;-64
2023/01/27 11:36:09;;;;;;;4.13;1.95;;;4.40;99.90;;;;;;5006704;28;20117;-64
2023/01/27 11:38:34;;;;;;;2.85;1.70;;;4.40;99.90;;;;;;5009652;28;20136;-64
2023/01/27 11:41:00;;;;;;;2.08;1.90;;;4.30;99.90;;;;;;5010612;28;20060;-64
2023/01/27 11:43:27;;;;;;;2.65;1.85;;;4.40;99.90;;;;;;5008914;28;20375;-65
2023/01/27 11:46:05;;;;;;;3.35;1.80;;;4.30;99.90;;;;;;5006036;28;20073;-64
2023/01/27 11:48:42;;;;;;;3.45;2.00;;;4.40;99.90;;;;;;5009120;28;20494;-65
2023/01/27 11:51:20;;;;;;;2.63;2.10;;;4.40;99.90;;;;;;5008307;28;20046;-64
2023/01/27 11:53:51;;;;;;;2.22;1.73;;;4.40;99.90;;;;;;5007852;28;20420;-64
2023/01/27 11:56:18;;;;;;;2.55;1.65;;;4.40;99.90;;;;;;5007572;28;20041;-64
2023/01/27 11:59:07;;;;;;;2.13;1.90;;;4.40;99.90;;;;;;5009671;28;20065;-65
2023/01/27 12:02:00;;;;;;;3.45;2.03;;;4.40;99.90;;;;;;5008600;28;20441;-65
2023/01/27 12:05:09;;;;;;;2.20;1.90;;;4.50;99.90;;;;;;5008792;28;20061;-65
2023/01/27 12:07:59;;;;;;;2.10;1.65;;;4.50;99.90;;;;;;5008453;28;20046;-64
2023/01/27 12:10:28;;;;;;;4.53;1.83;;;4.50;99.90;;;;;;5004272;28;20049;-65
2023/01/27 12:12:54;;;;;;;2.10;1.80;;;4.50;99.90;;;;;;5008040;28;20104;-63
2023/01/27 12:15:22;;;;;;;2.20;1.63;;;4.50;99.90;;;;;;5010083;28;20037;-63
2023/01/27 12:17:53;;;;;;;2.00;1.58;;;4.50;99.90;;;;;;5008969;28;20048;-63
2023/01/27 12:20:37;;;;;;;2.63;1.60;;;4.50;99.90;;;;;;5007189;28;20038;-63
2023/01/27 12:23:24;;;;;;;2.13;1.52;;;4.50;99.90;;;;;;5009225;28;20511;-63
2023/01/27 12:25:59;;;;;;;1.45;1.25;;;4.50;99.90;;;;;;5008373;28;20401;-63
2023/01/27 12:28:36;;;;;;;2.10;1.13;;;4.50;99.90;;;;;;5008869;28;20085;-63
2023/01/27 12:31:27;;;;;;;1.92;1.48;;;4.50;99.90;;;;;;5008779;28;20034;-63
2023/01/27 12:34:01;;;;;;;1.83;1.23;;;4.50;99.90;;;;;;5003206;28;20121;-63
2023/01/27 12:36:27;;;;;;;1.92;1.02;;;4.50;99.90;;;;;;5008817;28;20497;-65
2023/01/27 12:38:59;;;;;;;2.63;0.82;;;4.50;99.90;;;;;;5008280;28;20441;-64
2023/01/27 12:41:29;;;;;;;2.10;1.20;;;4.50;99.90;;;;;;5008073;28;20528;-64
2023/01/27 12:44:13;;;;;;;1.77;1.05;;;4.60;99.90;;;;;;5008166;28;20584;-64
2023/01/27 12:46:56;;;;;;;1.25;1.00;;;4.60;99.90;;;;;;5008374;28;20124;-64
2023/01/27 12:49:23;;;;;;;1.20;0.80;;;4.60;99.90;;;;;;5007354;28;20435;-64
2023/01/27 12:51:53;;;;;;;1.67;1.00;;;4.60;99.90;;;;;;5008125;28;20042;-63
2023/01/27 12:54:24;;;;;;;1.20;0.90;;;4.60;99.90;;;;;;5005900;28;20053;-64
2023/01/27 12:56:52;;;;;;;2.10;0.98;;;4.50;99.90;;;;;;4985021;28;20074;-63
2023/01/27 12:59:22;;;;;;;1.15;1.05;;;4.60;99.90;;;;;;5008936;28;20139;-64
2023/01/27 13:02:17;;;;;;;1.35;0.90;;;4.60;99.90;;;;;;5009564;28;20046;-64
2023/01/27 13:04:58;;;;;;;2.60;0.82;;;4.60;99.90;;;;;;5006381;28;20127;-63
2023/01/27 13:07:49;;;;;;;1.35;0.80;;;4.60;99.90;;;;;;5008253;28;20058;-64
2023/01/27 13:10:20;;;;;;;1.00;0.60;;;4.60;99.90;;;;;;5010741;28;20415;-64
2023/01/27 13:12:52;;;;;;;1.65;1.20;;;4.60;99.90;;;;;;5009578;28;20037;-64
2023/01/27 13:15:21;;;;;;;1.63;1.23;;;4.60;99.90;;;;;;5013850;28;20088;-64
2023/01/27 13:17:50;;;;;;;2.03;1.70;;;4.50;99.90;;;;;;5014082;28;20103;-64
2023/01/27 13:20:30;;;;;;;1.80;1.50;;;4.50;99.90;;;;;;5011968;28;20046;-64
2023/01/27 13:23:06;;;;;;;1.95;1.40;;;4.50;99.90;;;;;;5011862;28;20398;-64
2023/01/27 13:25:57;;;;;;;1.55;1.45;;;4.50;99.90;;;;;;5010670;28;20038;-64
2023/01/27 13:28:30;;;;;;;1.52;1.25;;;4.40;99.90;;;;;;5010223;28;20124;-64
2023/01/27 13:31:07;;;;;;;1.17;1.08;;;4.40;99.90;;;;;;5012090;28;20054;-65
2023/01/27 13:33:44;;;;;;;1.17;1.08;;;4.40;99.90;;;;;;5009888;28;20030;-64
2023/01/27 13:36:34;;;;;;;1.55;1.30;;;4.40;99.90;;;;;;5012033;28;20069;-63
2023/01/27 13:39:14;;;;;;;1.73;1.10;;;4.40;99.90;;;;;;5009240;28;20042;-64
2023/01/27 13:41:49;;;;;;;1.45;0.90;;;4.50;99.90;;;;;;5010073;28;20079;-64
2023/01/27 13:44:37;;;;;;;1.10;1.00;;;4.40;99.90;;;;;;5010141;28;20482;-65
2023/01/27 13:47:11;;;;;;;1.27;0.60;;;4.40;99.90;;;;;;5010603;28;20050;-64
2023/01/27 13:49:40;;;;;;;;;;;4.50;99.90;;;;;;5000873;28;20143;-64